Time;durP1;ratioP1;P1;durP2;ratioP2;P2;SDS_P1;SDS_P2;PMS_P1;PMS_P2;Temp;Humidity;BMP_temperature;BMP_pressure;BME280_temperature;BME280_humidity;BME280_pressure;Samples;Min_cycle;Max_cycle;Signal;HPM_P1;HPM_P2
2024/01/12 00:02:10;;;;;;;43.60;22.02;;;;;;;;;;5006522;28;20624;-78
2024/01/12 00:04:36;;;;;;;40.30;22.30;;;;;;;;;;5007060;28;20242;-78
2024/01/12 00:07:02;;;;;;;37.40;22.83;;;;;;;;;;5006607;28;20542;-79
2024/01/12 00:09:28;;;;;;;44.33;22.38;;;;;;;;;;5006807;28;20422;-78
2024/01/12 00:11:54;;;;;;;37.58;23.25;;;;;;;;;;5006420;28;20176;-78
2024/01/12 00:14:20;;;;;;;47.80;23.57;;;;;;;;;;5006088;28;20187;-78
2024/01/12 00:16:48;;;;;;;41.63;24.00;;;;;;;;;;5005971;28;20450;-79
2024/01/12 00:19:14;;;;;;;47.45;23.95;;;;;;;;;;5006382;28;20209;-78
2024/01/12 00:21:43;;;;;;;44.13;22.58;;;;;;;;;;5007077;28;20179;-78
2024/01/12 00:24:09;;;;;;;38.55;22.52;;;;;;;;;;5006435;28;20171;-78
2024/01/12 00:26:35;;;;;;;43.42;23.70;;;;;;;;;;5005600;28;20207;-78
2024/01/12 00:29:01;;;;;;;43.67;22.90;;;;;;;;;;5005731;28;20551;-79
2024/01/12 00:31:27;;;;;;;38.42;20.42;;;;;;;;;;5006232;28;20430;-78
2024/01/12 00:33:54;;;;;;;42.10;23.55;;;;;;;;;;5006261;28;20192;-78
2024/01/12 00:36:20;;;;;;;44.30;24.20;;;;;;;;;;5006320;28;20971;-78
2024/01/12 00:38:46;;;;;;;44.47;23.75;;;;;;;;;;5006224;28;20197;-78
2024/01/12 00:41:12;;;;;;;45.20;24.10;;;;;;;;;;5005689;28;20179;-79
2024/01/12 00:43:38;;;;;;;39.47;23.10;;;;;;;;;;5006430;28;20183;-78
2024/01/12 00:46:04;;;;;;;39.85;22.17;;;;;;;;;;5004976;28;20463;-78
2024/01/12 00:48:30;;;;;;;36.22;21.17;;;;;;;;;;5005718;28;20188;-78
2024/01/12 00:50:56;;;;;;;41.22;22.10;;;;;;;;;;5005611;28;20258;-78
2024/01/12 00:53:22;;;;;;;35.58;21.70;;;;;;;;;;5006070;28;20178;-78
2024/01/12 00:55:49;;;;;;;44.53;23.75;;;;;;;;;;5005972;28;20251;-78
2024/01/12 00:58:14;;;;;;;44.97;23.33;;;;;;;;;;5005177;28;20179;-78
2024/01/12 01:00:40;;;;;;;46.63;23.27;;;;;;;;;;5006600;28;20624;-78
2024/01/12 01:03:06;;;;;;;46.17;23.83;;;;;;;;;;5004889;28;20462;-78
2024/01/12 01:05:34;;;;;;;48.57;26.30;;;;;;;;;;5005437;28;20468;-78
2024/01/12 01:08:00;;;;;;;45.95;23.90;;;;;;;;;;5004697;28;20443;-78
2024/01/12 01:10:26;;;;;;;51.30;25.23;;;;;;;;;;5004950;28;20167;-78
2024/01/12 01:12:51;;;;;;;45.33;24.35;;;;;;;;;;5005367;28;20176;-78
2024/01/12 01:15:18;;;;;;;53.07;24.40;;;;;;;;;;5005242;28;20194;-78
2024/01/12 01:17:44;;;;;;;43.83;23.75;;;;;;;;;;5005632;28;20431;-78
2024/01/12 01:20:11;;;;;;;38.72;23.20;;;;;;;;;;5005715;28;20179;-78
2024/01/12 01:22:37;;;;;;;46.20;24.65;;;;;;;;;;5005304;28;20180;-78
2024/01/12 01:25:03;;;;;;;41.75;23.05;;;;;;;;;;5004381;28;20228;-83
2024/01/12 01:27:29;;;;;;;60.22;24.77;;;;;;;;;;5005310;28;20190;-78
2024/01/12 01:29:55;;;;;;;52.10;24.80;;;;;;;;;;5005269;28;20217;-78
2024/01/12 01:32:21;;;;;;;55.28;24.02;;;;;;;;;;5005782;28;20187;-78
2024/01/12 01:34:47;;;;;;;46.97;25.63;;;;;;;;;;5005635;28;20191;-78
2024/01/12 01:37:13;;;;;;;48.75;25.08;;;;;;;;;;5005966;28;20544;-78
2024/01/12 01:39:39;;;;;;;45.15;24.70;;;;;;;;;;5005603;28;20179;-79
2024/01/12 01:42:05;;;;;;;41.80;24.70;;;;;;;;;;5005661;28;20178;-81
2024/01/12 01:44:31;;;;;;;49.03;23.30;;;;;;;;;;5004950;28;20315;-78
2024/01/12 01:46:58;;;;;;;49.30;26.25;;;;;;;;;;5005248;28;20200;-78
2024/01/12 01:49:25;;;;;;;42.15;24.88;;;;;;;;;;5005235;28;20214;-78
2024/01/12 01:51:51;;;;;;;61.38;24.98;;;;;;;;;;5005578;28;20179;-78
2024/01/12 01:54:19;;;;;;;43.53;24.00;;;;;;;;;;5002335;28;20191;-78
2024/01/12 01:56:45;;;;;;;44.08;25.27;;;;;;;;;;4985959;28;20188;-78
2024/01/12 01:59:12;;;;;;;52.78;25.75;;;;;;;;;;4985668;28;20176;-79
2024/01/12 02:01:38;;;;;;;50.08;26.63;;;;;;;;;;4985934;28;20184;-78
2024/01/12 02:04:05;;;;;;;47.85;25.50;;;;;;;;;;4985735;28;20320;-78
2024/01/12 02:06:32;;;;;;;44.40;25.00;;;;;;;;;;4985665;28;20566;-78
2024/01/12 02:08:58;;;;;;;40.67;24.25;;;;;;;;;;4985789;28;20188;-78
2024/01/12 02:11:25;;;;;;;51.50;26.35;;;;;;;;;;4985930;28;20260;-79
2024/01/12 02:13:51;;;;;;;57.63;26.15;;;;;;;;;;4985921;28;20183;-78
2024/01/12 02:16:17;;;;;;;45.90;25.92;;;;;;;;;;4984769;28;20201;-78
2024/01/12 02:18:43;;;;;;;50.60;26.40;;;;;;;;;;4986166;28;20175;-78
2024/01/12 02:21:09;;;;;;;53.22;26.80;;;;;;;;;;4989365;28;20181;-78
2024/01/12 02:23:35;;;;;;;45.78;24.83;;;;;;;;;;4988786;28;20177;-78
2024/01/12 02:26:02;;;;;;;45.65;24.13;;;;;;;;;;4989072;28;20215;-78
2024/01/12 02:28:28;;;;;;;50.78;25.63;;;;;;;;;;4988532;28;20195;-78
2024/01/12 02:30:54;;;;;;;47.83;28.70;;;;;;;;;;4988884;28;20180;-78
2024/01/12 02:33:20;;;;;;;49.33;27.45;;;;;;;;;;4999528;28;20188;-79
2024/01/12 02:35:46;;;;;;;49.20;27.83;;;;;;;;;;5027123;28;20193;-78
2024/01/12 02:38:12;;;;;;;43.08;23.02;;;;;;;;;;5027638;28;20187;-79
2024/01/12 02:40:38;;;;;;;47.40;26.10;;;;;;;;;;5027359;28;20183;-78
2024/01/12 02:43:04;;;;;;;50.03;25.08;;;;;;;;;;5027100;28;20182;-78
2024/01/12 02:45:30;;;;;;;46.42;25.63;;;;;;;;;;5026786;28;20199;-78
2024/01/12 02:47:56;;;;;;;50.65;27.38;;;;;;;;;;5028292;28;20190;-78
2024/01/12 02:50:22;;;;;;;46.80;27.83;;;;;;;;;;5026781;28;20194;-79
2024/01/12 02:52:48;;;;;;;47.47;27.55;;;;;;;;;;5027103;28;20216;-78
2024/01/12 02:55:14;;;;;;;51.90;28.13;;;;;;;;;;5016559;28;20207;-78
2024/01/12 02:57:40;;;;;;;55.28;24.30;;;;;;;;;;5007531;28;20184;-78
2024/01/12 03:00:07;;;;;;;64.60;27.33;;;;;;;;;;5007445;28;20279;-78
2024/01/12 03:02:33;;;;;;;50.92;28.73;;;;;;;;;;5007003;28;20545;-78
2024/01/12 03:04:59;;;;;;;46.25;26.25;;;;;;;;;;5006470;28;20306;-78
2024/01/12 03:07:25;;;;;;;50.83;26.20;;;;;;;;;;5006936;28;20203;-78
2024/01/12 03:09:51;;;;;;;48.75;26.63;;;;;;;;;;5008019;28;20183;-78
2024/01/12 03:12:17;;;;;;;41.78;25.05;;;;;;;;;;5007278;28;20182;-78
2024/01/12 03:14:43;;;;;;;45.63;25.83;;;;;;;;;;5007507;28;20187;-78
2024/01/12 03:17:10;;;;;;;46.13;24.97;;;;;;;;;;5007775;28;20175;-79
2024/01/12 03:19:36;;;;;;;47.00;26.20;;;;;;;;;;5007636;28;20409;-78
2024/01/12 03:22:02;;;;;;;44.63;24.27;;;;;;;;;;5007261;28;20199;-79
2024/01/12 03:24:28;;;;;;;44.83;25.80;;;;;;;;;;5007446;28;20180;-78
2024/01/12 03:26:54;;;;;;;45.17;24.80;;;;;;;;;;5006797;28;20231;-78
2024/01/12 03:29:20;;;;;;;47.92;26.20;;;;;;;;;;5007362;28;20418;-78
2024/01/12 03:31:46;;;;;;;46.47;27.23;;;;;;;;;;5006033;28;20713;-78
2024/01/12 03:34:12;;;;;;;43.13;26.70;;;;;;;;;;5006824;28;20187;-79
2024/01/12 03:36:38;;;;;;;46.40;27.48;;;;;;;;;;5006911;28;20191;-78
2024/01/12 03:39:04;;;;;;;47.10;26.07;;;;;;;;;;5007006;28;20649;-78
2024/01/12 03:41:30;;;;;;;46.40;27.42;;;;;;;;;;5004699;28;20422;-78
2024/01/12 03:43:57;;;;;;;49.78;24.38;;;;;;;;;;5006624;28;20194;-78
2024/01/12 03:46:23;;;;;;;50.03;25.65;;;;;;;;;;5006779;28;20599;-79
2024/01/12 03:48:49;;;;;;;46.83;26.45;;;;;;;;;;5005629;28;20187;-80
2024/01/12 03:51:15;;;;;;;45.47;27.67;;;;;;;;;;4991423;28;20235;-78
2024/01/12 03:53:41;;;;;;;47.05;25.05;;;;;;;;;;4987481;28;20168;-78
2024/01/12 03:56:07;;;;;;;48.50;26.13;;;;;;;;;;4986936;28;20187;-78
2024/01/12 03:58:32;;;;;;;45.35;24.77;;;;;;;;;;4987592;28;20192;-78
2024/01/12 04:00:58;;;;;;;48.00;26.97;;;;;;;;;;4986706;28;20191;-78
2024/01/12 04:03:24;;;;;;;54.55;29.75;;;;;;;;;;4986364;28;20498;-78
2024/01/12 04:05:51;;;;;;;46.30;26.10;;;;;;;;;;4986559;28;20196;-78
2024/01/12 04:08:17;;;;;;;44.15;28.50;;;;;;;;;;4986573;28;20187;-79
2024/01/12 04:10:42;;;;;;;49.42;27.77;;;;;;;;;;4987154;28;20179;-78
2024/01/12 04:13:08;;;;;;;49.57;26.60;;;;;;;;;;4986585;28;20263;-83
2024/01/12 04:15:34;;;;;;;55.60;28.37;;;;;;;;;;4989529;28;20443;-78
2024/01/12 04:18:01;;;;;;;52.42;27.52;;;;;;;;;;4986795;28;20423;-78
2024/01/12 04:20:27;;;;;;;48.50;27.00;;;;;;;;;;4986593;28;20208;-78
2024/01/12 04:22:53;;;;;;;58.07;28.60;;;;;;;;;;4985769;28;20184;-78
2024/01/12 04:25:19;;;;;;;46.90;27.63;;;;;;;;;;4986539;28;20510;-78
2024/01/12 04:27:44;;;;;;;49.73;29.13;;;;;;;;;;4986411;28;20438;-78
2024/01/12 04:30:11;;;;;;;53.00;28.67;;;;;;;;;;4985547;28;20459;-78
2024/01/12 04:32:37;;;;;;;49.90;28.00;;;;;;;;;;4986197;28;20419;-78
2024/01/12 04:35:03;;;;;;;48.73;28.90;;;;;;;;;;4986370;28;20184;-78
2024/01/12 04:37:29;;;;;;;50.22;28.08;;;;;;;;;;4986689;28;20416;-78
2024/01/12 04:39:55;;;;;;;50.67;28.00;;;;;;;;;;4987868;28;20195;-78
2024/01/12 04:42:21;;;;;;;53.37;29.50;;;;;;;;;;5000085;28;20420;-78
2024/01/12 04:44:47;;;;;;;60.13;28.73;;;;;;;;;;4985783;28;20431;-78
2024/01/12 04:47:13;;;;;;;55.03;27.67;;;;;;;;;;4998778;28;20370;-78
2024/01/12 04:49:39;;;;;;;53.03;26.70;;;;;;;;;;5005538;28;20446;-78
2024/01/12 04:52:05;;;;;;;51.80;28.58;;;;;;;;;;5005616;28;20474;-78
2024/01/12 04:54:31;;;;;;;47.72;28.40;;;;;;;;;;5004629;28;20188;-79
2024/01/12 04:56:57;;;;;;;52.35;30.58;;;;;;;;;;4985954;28;20279;-78
2024/01/12 04:59:23;;;;;;;47.15;28.35;;;;;;;;;;4986032;28;20234;-79
2024/01/12 05:01:49;;;;;;;53.92;29.92;;;;;;;;;;4988706;28;20179;-78
2024/01/12 05:04:15;;;;;;;49.90;28.63;;;;;;;;;;5004964;28;20322;-78
2024/01/12 05:06:42;;;;;;;57.22;30.05;;;;;;;;;;5004042;28;20474;-78
2024/01/12 05:09:08;;;;;;;68.65;32.88;;;;;;;;;;5005808;28;20185;-78
2024/01/12 05:11:34;;;;;;;53.72;31.50;;;;;;;;;;5004321;28;20188;-78
2024/01/12 05:14:00;;;;;;;53.35;31.92;;;;;;;;;;4999990;28;20194;-78
2024/01/12 05:16:26;;;;;;;57.95;28.50;;;;;;;;;;5004342;28;20187;-78
2024/01/12 05:18:52;;;;;;;49.03;30.67;;;;;;;;;;5005582;28;20179;-78
2024/01/12 05:21:18;;;;;;;56.17;29.80;;;;;;;;;;5005905;28;20601;-81
2024/01/12 05:23:44;;;;;;;60.07;30.90;;;;;;;;;;5005172;28;20446;-78
2024/01/12 05:26:10;;;;;;;61.97;31.52;;;;;;;;;;5006164;28;20467;-78
2024/01/12 05:28:36;;;;;;;56.88;30.95;;;;;;;;;;5005527;28;20239;-78
2024/01/12 05:31:02;;;;;;;60.40;31.83;;;;;;;;;;5005887;28;20203;-77
2024/01/12 05:33:28;;;;;;;54.07;30.53;;;;;;;;;;5005246;28;20490;-78
2024/01/12 05:35:54;;;;;;;66.90;34.63;;;;;;;;;;5006071;28;20939;-78
2024/01/12 05:38:20;;;;;;;58.50;32.10;;;;;;;;;;5005893;28;20191;-78
2024/01/12 05:40:46;;;;;;;58.30;33.30;;;;;;;;;;5006280;28;20510;-78
2024/01/12 05:43:12;;;;;;;58.53;33.07;;;;;;;;;;5005219;28;20406;-78
2024/01/12 05:45:38;;;;;;;57.47;31.80;;;;;;;;;;5005553;28;21002;-78
2024/01/12 05:48:04;;;;;;;46.37;29.33;;;;;;;;;;5005411;28;20186;-78
2024/01/12 05:50:30;;;;;;;52.78;29.48;;;;;;;;;;5005553;28;20479;-78
2024/01/12 05:52:56;;;;;;;55.63;30.90;;;;;;;;;;5004599;28;20177;-78
2024/01/12 05:55:22;;;;;;;57.07;31.77;;;;;;;;;;5008460;28;20184;-78
2024/01/12 05:57:48;;;;;;;53.95;31.02;;;;;;;;;;5009071;28;20494;-78
2024/01/12 06:00:14;;;;;;;62.25;34.25;;;;;;;;;;5008499;28;20243;-78
2024/01/12 06:02:40;;;;;;;63.67;33.42;;;;;;;;;;5008743;28;20183;-78
2024/01/12 06:05:06;;;;;;;58.47;31.63;;;;;;;;;;5008616;28;20235;-78
2024/01/12 06:07:32;;;;;;;57.00;32.83;;;;;;;;;;5008674;28;20406;-78
2024/01/12 06:09:58;;;;;;;63.72;33.90;;;;;;;;;;5008757;28;20202;-78
2024/01/12 06:12:24;;;;;;;67.67;34.97;;;;;;;;;;5008406;28;20179;-78
2024/01/12 06:14:50;;;;;;;62.43;33.80;;;;;;;;;;5008460;28;20446;-78
2024/01/12 06:17:16;;;;;;;64.20;35.17;;;;;;;;;;5009005;28;20403;-78
2024/01/12 06:19:42;;;;;;;72.33;35.40;;;;;;;;;;5008901;28;20422;-78
2024/01/12 06:22:09;;;;;;;69.13;35.45;;;;;;;;;;5007830;28;20500;-78
2024/01/12 06:24:35;;;;;;;68.13;33.15;;;;;;;;;;5008643;28;20184;-78
2024/01/12 06:27:02;;;;;;;68.40;33.77;;;;;;;;;;5008471;28;20215;-79
2024/01/12 06:29:28;;;;;;;62.78;32.90;;;;;;;;;;5008376;28;20412;-78
2024/01/12 06:31:54;;;;;;;70.82;38.88;;;;;;;;;;5008732;28;20197;-78
2024/01/12 06:34:20;;;;;;;76.28;36.65;;;;;;;;;;5008305;28;20664;-78
2024/01/12 06:36:46;;;;;;;65.88;33.35;;;;;;;;;;5008372;28;20192;-79
2024/01/12 06:39:12;;;;;;;66.97;36.87;;;;;;;;;;5009146;28;20172;-78
2024/01/12 06:41:46;;;;;;;72.33;36.97;;;;;;;;;;5008235;28;20407;-79
2024/01/12 06:44:12;;;;;;;63.70;33.25;;;;;;;;;;5008967;28;20414;-78
2024/01/12 06:46:45;;;;;;;65.72;33.88;;;;;;;;;;5008609;28;20227;-78
2024/01/12 06:49:11;;;;;;;72.47;37.55;;;;;;;;;;5019209;28;20193;-78
2024/01/12 06:51:37;;;;;;;60.80;33.35;;;;;;;;;;5028114;28;20201;-78
2024/01/12 06:54:03;;;;;;;65.07;34.58;;;;;;;;;;5027564;28;20667;-78
2024/01/12 06:56:30;;;;;;;69.63;35.17;;;;;;;;;;5027855;28;20192;-78
2024/01/12 06:58:56;;;;;;;65.70;35.08;;;;;;;;;;5027488;28;20180;-77
2024/01/12 07:01:22;;;;;;;65.10;32.88;;;;;;;;;;5028401;28;20198;-78
2024/01/12 07:03:51;;;;;;;58.20;32.87;;;;;;;;;;5027726;28;20230;-78
2024/01/12 07:06:17;;;;;;;61.20;33.08;;;;;;;;;;5026148;28;20494;-78
2024/01/12 07:08:43;;;;;;;81.53;37.50;;;;;;;;;;5026027;28;20196;-78
2024/01/12 07:11:09;;;;;;;68.05;35.13;;;;;;;;;;5028053;28;20411;-78
2024/01/12 07:13:35;;;;;;;63.97;33.33;;;;;;;;;;5026738;28;20181;-78
2024/01/12 07:16:01;;;;;;;65.10;34.92;;;;;;;;;;5027863;28;20187;-78
2024/01/12 07:18:27;;;;;;;89.80;36.53;;;;;;;;;;5027345;28;20235;-78
2024/01/12 07:20:56;;;;;;;82.43;36.30;;;;;;;;;;5026995;28;20458;-78
2024/01/12 07:23:22;;;;;;;74.38;38.42;;;;;;;;;;5025741;28;20207;-79
2024/01/12 07:25:48;;;;;;;84.60;36.55;;;;;;;;;;5026514;28;20209;-78
2024/01/12 07:28:15;;;;;;;79.87;39.83;;;;;;;;;;5025240;28;20179;-78
2024/01/12 07:30:41;;;;;;;79.85;36.92;;;;;;;;;;4993958;28;20464;-78
2024/01/12 07:33:08;;;;;;;83.50;37.97;;;;;;;;;;5005513;28;20540;-78
2024/01/12 07:35:33;;;;;;;74.30;36.53;;;;;;;;;;4997006;28;20200;-78
2024/01/12 07:37:59;;;;;;;82.97;36.60;;;;;;;;;;4986841;28;20273;-79
2024/01/12 07:40:25;;;;;;;85.87;36.63;;;;;;;;;;4986908;28;20407;-83
2024/01/12 07:42:51;;;;;;;87.80;38.53;;;;;;;;;;4987232;28;20924;-78
2024/01/12 07:45:17;;;;;;;84.38;39.70;;;;;;;;;;4987540;28;20506;-78
2024/01/12 07:47:43;;;;;;;83.03;37.45;;;;;;;;;;4986311;28;20188;-78
2024/01/12 07:50:09;;;;;;;100.57;38.83;;;;;;;;;;4986882;28;20191;-78
2024/01/12 07:52:35;;;;;;;92.90;36.25;;;;;;;;;;4997590;28;20507;-78
2024/01/12 07:55:02;;;;;;;86.45;37.55;;;;;;;;;;5006488;28;20184;-78
2024/01/12 07:57:28;;;;;;;79.45;38.58;;;;;;;;;;5004630;28;20191;-79
2024/01/12 07:59:56;;;;;;;96.07;42.13;;;;;;;;;;5006547;28;20180;-79
2024/01/12 08:02:23;;;;;;;84.35;37.10;;;;;;;;;;4989225;28;20424;-78
2024/01/12 08:04:49;;;;;;;96.82;41.03;;;;;;;;;;4986386;28;20231;-78
2024/01/12 08:07:15;;;;;;;86.80;38.70;;;;;;;;;;4987175;28;20177;-78
2024/01/12 08:09:41;;;;;;;86.28;39.33;;;;;;;;;;4985656;28;20500;-78
2024/01/12 08:12:07;;;;;;;82.15;37.95;;;;;;;;;;4983247;28;20180;-78
2024/01/12 08:14:33;;;;;;;83.72;40.53;;;;;;;;;;4986764;28;20177;-78
2024/01/12 08:17:00;;;;;;;88.25;39.80;;;;;;;;;;4986383;28;20189;-78
2024/01/12 08:19:25;;;;;;;96.97;41.25;;;;;;;;;;4986728;28;20180;-79
2024/01/12 08:21:51;;;;;;;91.47;40.43;;;;;;;;;;4985907;28;20192;-78
2024/01/12 08:24:17;;;;;;;87.90;39.27;;;;;;;;;;4986466;28;20448;-78
2024/01/12 08:26:45;;;;;;;97.22;39.88;;;;;;;;;;4986026;28;20988;-78
2024/01/12 08:29:10;;;;;;;81.18;37.92;;;;;;;;;;4986773;28;20180;-78
2024/01/12 08:31:36;;;;;;;92.80;40.30;;;;;;;;;;4988193;28;20223;-79
2024/01/12 08:34:02;;;;;;;83.83;40.17;;;;;;;;;;5005309;28;20431;-79
2024/01/12 08:36:28;;;;;;;85.63;37.43;;;;;;;;;;5005994;28;20411;-78
2024/01/12 08:38:54;;;;;;;79.95;38.60;;;;;;;;;;5005113;28;20494;-80
2024/01/12 08:41:20;;;;;;;85.10;38.97;;;;;;;;;;5005411;28;20273;-79
2024/01/12 08:43:46;;;;;;;87.80;38.90;;;;;;;;;;5004445;28;20419;-79
2024/01/12 08:46:12;;;;;;;86.23;38.77;;;;;;;;;;5005308;28;20455;-79
2024/01/12 08:48:38;;;;;;;86.65;38.63;;;;;;;;;;5005726;28;20421;-78
2024/01/12 08:51:04;;;;;;;95.60;40.78;;;;;;;;;;5005669;28;20179;-78
2024/01/12 08:53:30;;;;;;;89.93;39.92;;;;;;;;;;5006321;28;20172;-81
2024/01/12 08:55:56;;;;;;;92.23;41.33;;;;;;;;;;5005903;28;20194;-78
2024/01/12 08:58:22;;;;;;;95.43;38.47;;;;;;;;;;5005934;28;20418;-78
2024/01/12 09:00:48;;;;;;;91.50;38.40;;;;;;;;;;5005691;28;20228;-78
2024/01/12 09:03:14;;;;;;;87.72;39.35;;;;;;;;;;5005132;28;20482;-79
2024/01/12 09:05:40;;;;;;;119.18;52.08;;;;;;;;;;5005879;28;20227;-78
2024/01/12 09:08:06;;;;;;;94.38;41.97;;;;;;;;;;5006286;28;20176;-78
2024/01/12 09:10:32;;;;;;;105.82;42.00;;;;;;;;;;5006974;28;20211;-79
2024/01/12 09:12:58;;;;;;;90.70;40.10;;;;;;;;;;5006552;28;20187;-78
2024/01/12 09:15:24;;;;;;;91.97;39.72;;;;;;;;;;5006640;28;20415;-78
2024/01/12 09:17:50;;;;;;;91.20;40.97;;;;;;;;;;5005740;28;20655;-78
2024/01/12 09:20:18;;;;;;;88.43;39.90;;;;;;;;;;5006315;28;20471;-78
2024/01/12 09:22:44;;;;;;;95.72;39.88;;;;;;;;;;5005191;28;20446;-79
2024/01/12 09:25:10;;;;;;;92.90;42.33;;;;;;;;;;5005523;28;20279;-78
2024/01/12 09:27:36;;;;;;;113.43;39.55;;;;;;;;;;5007218;28;20416;-79
2024/01/12 09:30:02;;;;;;;91.28;40.42;;;;;;;;;;5008511;28;20178;-78
2024/01/12 09:32:28;;;;;;;90.20;41.13;;;;;;;;;;5009648;28;20244;-78
2024/01/12 09:34:54;;;;;;;94.40;39.83;;;;;;;;;;5009652;28;20592;-78
2024/01/12 09:37:20;;;;;;;103.65;40.45;;;;;;;;;;5010369;28;20493;-78
2024/01/12 09:39:47;;;;;;;93.33;40.40;;;;;;;;;;5009356;28;20638;-79
2024/01/12 09:42:15;;;;;;;114.45;42.35;;;;;;;;;;5008421;28;20496;-78
2024/01/12 09:44:45;;;;;;;95.00;38.67;;;;;;;;;;5007923;28;20663;-78
2024/01/12 09:47:12;;;;;;;102.60;40.95;;;;;;;;;;5009417;28;20192;-78
2024/01/12 09:49:38;;;;;;;104.15;40.53;;;;;;;;;;5002847;28;20236;-78
2024/01/12 09:52:07;;;;;;;99.13;42.33;;;;;;;;;;4990643;28;20231;-78
2024/01/12 09:54:34;;;;;;;93.60;39.47;;;;;;;;;;4989694;28;20198;-78
2024/01/12 09:57:02;;;;;;;107.10;41.08;;;;;;;;;;4989590;28;20254;-78
2024/01/12 09:59:28;;;;;;;89.72;38.55;;;;;;;;;;4989123;28;20182;-78
2024/01/12 10:01:55;;;;;;;92.45;39.08;;;;;;;;;;4987569;28;20568;-79
2024/01/12 10:04:21;;;;;;;95.07;39.13;;;;;;;;;;4987613;28;20224;-78
2024/01/12 10:06:47;;;;;;;105.55;40.83;;;;;;;;;;4988197;28;20213;-79
2024/01/12 10:09:13;;;;;;;88.80;39.37;;;;;;;;;;4987439;28;20246;-79
2024/01/12 10:11:40;;;;;;;85.65;39.20;;;;;;;;;;4986659;28;20471;-79
2024/01/12 10:14:06;;;;;;;101.10;43.40;;;;;;;;;;4995397;28;20257;-80
2024/01/12 10:16:32;;;;;;;106.60;38.27;;;;;;;;;;4987077;28;20189;-79
2024/01/12 10:18:58;;;;;;;112.22;41.47;;;;;;;;;;4987846;28;20420;-80
2024/01/12 10:21:25;;;;;;;95.20;44.00;;;;;;;;;;5006208;28;20216;-82
2024/01/12 10:24:07;;;;;;;108.70;43.90;;;;;;;;;;5003910;28;20180;-83
2024/01/12 10:26:33;;;;;;;99.22;39.97;;;;;;;;;;5002113;28;20215;-82
2024/01/12 10:29:05;;;;;;;95.53;40.53;;;;;;;;;;5002424;28;20207;-81
2024/01/12 10:31:31;;;;;;;98.97;40.42;;;;;;;;;;5001886;28;20399;-81
2024/01/12 10:33:59;;;;;;;91.67;40.53;;;;;;;;;;5000791;28;20179;-80
2024/01/12 10:36:27;;;;;;;92.32;39.05;;;;;;;;;;5002096;28;20431;-80
2024/01/12 10:38:53;;;;;;;98.38;40.65;;;;;;;;;;5001662;28;20189;-80
2024/01/12 10:41:22;;;;;;;93.18;41.42;;;;;;;;;;5000667;28;20189;-81
2024/01/12 10:43:51;;;;;;;92.18;38.40;;;;;;;;;;4991997;28;20223;-81
2024/01/12 10:46:29;;;;;;;89.40;38.65;;;;;;;;;;4983623;28;20672;-81
2024/01/12 10:49:07;;;;;;;88.00;37.47;;;;;;;;;;4982941;28;20265;-81
2024/01/12 10:51:37;;;;;;;101.07;41.47;;;;;;;;;;4984213;28;20180;-81
2024/01/12 10:54:09;;;;;;;87.57;36.58;;;;;;;;;;4983980;28;20173;-80
2024/01/12 10:56:36;;;;;;;86.18;36.72;;;;;;;;;;4983558;28;20261;-81
2024/01/12 10:59:05;;;;;;;79.03;36.42;;;;;;;;;;4983128;28;20183;-80
2024/01/12 11:01:32;;;;;;;108.38;38.75;;;;;;;;;;5022681;28;20180;-80
2024/01/12 11:03:58;;;;;;;96.78;38.78;;;;;;;;;;5022101;28;20227;-81
2024/01/12 11:06:25;;;;;;;86.38;36.33;;;;;;;;;;5021023;28;20215;-80
2024/01/12 11:08:51;;;;;;;94.40;38.42;;;;;;;;;;5022088;28;20596;-81
2024/01/12 11:11:18;;;;;;;92.57;37.45;;;;;;;;;;5021598;28;20187;-80
2024/01/12 11:13:45;;;;;;;87.25;38.90;;;;;;;;;;5020378;28;20224;-81
2024/01/12 11:16:11;;;;;;;89.70;39.40;;;;;;;;;;5002410;28;20186;-79
2024/01/12 11:18:37;;;;;;;85.10;35.03;;;;;;;;;;5003030;28;20191;-79
2024/01/12 11:21:04;;;;;;;83.65;34.90;;;;;;;;;;5002214;28;20228;-80
2024/01/12 11:23:38;;;;;;;90.65;38.05;;;;;;;;;;5002584;28;20200;-81
2024/01/12 11:26:04;;;;;;;87.85;37.75;;;;;;;;;;5002047;28;20272;-81
2024/01/12 11:28:37;;;;;;;83.95;37.03;;;;;;;;;;5002203;28;20194;-80
2024/01/12 11:31:03;;;;;;;100.95;38.17;;;;;;;;;;5001694;28;20169;-81
2024/01/12 11:33:31;;;;;;;74.90;34.35;;;;;;;;;;5002012;28;20209;-81
2024/01/12 11:36:02;;;;;;;116.25;43.22;;;;;;;;;;5002016;28;20226;-81
2024/01/12 11:38:38;;;;;;;103.07;40.35;;;;;;;;;;5002044;28;20233;-80
2024/01/12 11:41:11;;;;;;;75.35;29.77;;;;;;;;;;5001879;28;20180;-80
2024/01/12 11:43:37;;;;;;;78.25;32.15;;;;;;;;;;5002271;28;20726;-80
2024/01/12 11:46:04;;;;;;;71.78;29.92;;;;;;;;;;5001823;28;20216;-81
2024/01/12 11:48:31;;;;;;;58.35;26.17;;;;;;;;;;5001834;28;20676;-80
2024/01/12 11:50:57;;;;;;;59.67;26.65;;;;;;;;;;5001091;28;20243;-81
2024/01/12 11:53:23;;;;;;;42.97;20.50;;;;;;;;;;5001949;28;20635;-82
2024/01/12 11:55:49;;;;;;;44.57;21.70;;;;;;;;;;5001481;28;20492;-80
2024/01/12 11:58:15;;;;;;;46.65;24.95;;;;;;;;;;5002091;28;20472;-79
2024/01/12 12:00:41;;;;;;;55.03;22.23;;;;;;;;;;5002565;28;20174;-87
2024/01/12 12:03:08;;;;;;;57.75;23.05;;;;;;;;;;5002362;28;20238;-80
2024/01/12 12:05:34;;;;;;;58.05;22.85;;;;;;;;;;5002884;28;20199;-79
2024/01/12 12:08:02;;;;;;;45.55;22.55;;;;;;;;;;5002326;28;20183;-80
2024/01/12 12:10:28;;;;;;;41.42;20.70;;;;;;;;;;5003029;28;20610;-79
2024/01/12 12:12:54;;;;;;;55.78;22.30;;;;;;;;;;5001690;28;20257;-79
2024/01/12 12:15:20;;;;;;;52.72;21.40;;;;;;;;;;5002266;28;20185;-80
2024/01/12 12:17:48;;;;;;;60.92;23.05;;;;;;;;;;5003419;28;20191;-80
2024/01/12 12:20:15;;;;;;;48.75;23.63;;;;;;;;;;5002916;28;20185;-80
2024/01/12 12:22:42;;;;;;;45.17;21.83;;;;;;;;;;5003280;28;20182;-80
2024/01/12 12:25:09;;;;;;;48.28;22.23;;;;;;;;;;5002879;28;20248;-80
2024/01/12 12:27:35;;;;;;;45.83;20.80;;;;;;;;;;5003183;28;20185;-80
2024/01/12 12:30:02;;;;;;;39.78;18.55;;;;;;;;;;5002955;28;20188;-80
2024/01/12 12:32:28;;;;;;;47.92;21.38;;;;;;;;;;5003998;28;20272;-80
2024/01/12 12:34:54;;;;;;;42.00;19.67;;;;;;;;;;5002296;28;20198;-80
2024/01/12 12:37:22;;;;;;;45.53;19.97;;;;;;;;;;5001004;28;20413;-80
2024/01/12 12:39:48;;;;;;;38.30;18.90;;;;;;;;;;5002542;28;20412;-80
2024/01/12 12:42:14;;;;;;;45.00;19.80;;;;;;;;;;5002924;28;20180;-80
2024/01/12 12:44:40;;;;;;;41.40;20.73;;;;;;;;;;4999688;28;20586;-79
2024/01/12 12:47:06;;;;;;;40.00;16.55;;;;;;;;;;5001234;28;20208;-80
2024/01/12 12:49:42;;;;;;;37.28;17.25;;;;;;;;;;5001424;28;20247;-79
2024/01/12 12:52:09;;;;;;;38.53;17.13;;;;;;;;;;5001971;28;20183;-79
2024/01/12 12:54:36;;;;;;;36.13;17.27;;;;;;;;;;5002186;28;20187;-80
2024/01/12 12:57:02;;;;;;;32.00;15.25;;;;;;;;;;5001700;28;20196;-80
2024/01/12 12:59:33;;;;;;;38.95;17.70;;;;;;;;;;5001411;28;20187;-80
2024/01/12 13:02:00;;;;;;;32.88;14.98;;;;;;;;;;5001844;28;20193;-80
2024/01/12 13:04:26;;;;;;;42.53;17.65;;;;;;;;;;5000995;28;20228;-80
2024/01/12 13:06:52;;;;;;;39.15;16.85;;;;;;;;;;5002182;28;20213;-80
2024/01/12 13:09:18;;;;;;;37.47;17.20;;;;;;;;;;5002150;28;20220;-80
2024/01/12 13:11:44;;;;;;;32.77;15.60;;;;;;;;;;5001438;28;20411;-80
2024/01/12 13:14:10;;;;;;;39.77;15.77;;;;;;;;;;5015387;28;20420;-80
2024/01/12 13:16:36;;;;;;;33.65;16.25;;;;;;;;;;5021687;28;20490;-80
2024/01/12 13:19:03;;;;;;;39.47;17.85;;;;;;;;;;5021152;28;20219;-80
2024/01/12 13:21:30;;;;;;;39.53;17.02;;;;;;;;;;5020603;28;20179;-81
2024/01/12 13:23:56;;;;;;;44.63;20.02;;;;;;;;;;5009752;28;20190;-80
2024/01/12 13:26:22;;;;;;;43.65;18.15;;;;;;;;;;5001865;28;20212;-80
2024/01/12 13:28:48;;;;;;;56.07;20.07;;;;;;;;;;5001822;28;20295;-81
2024/01/12 13:31:15;;;;;;;40.90;19.27;;;;;;;;;;5001581;28;20484;-80
2024/01/12 13:33:41;;;;;;;42.55;20.95;;;;;;;;;;5002205;28;20420;-80
2024/01/12 13:36:07;;;;;;;47.00;18.30;;;;;;;;;;5001224;28;20226;-80
2024/01/12 13:38:33;;;;;;;40.10;18.73;;;;;;;;;;5002021;28;20408;-80
2024/01/12 13:40:59;;;;;;;45.00;18.70;;;;;;;;;;5001882;28;20185;-80
2024/01/12 13:43:26;;;;;;;48.47;20.02;;;;;;;;;;5007905;28;20213;-81
2024/01/12 13:45:52;;;;;;;42.00;18.87;;;;;;;;;;5022486;28;20217;-80
2024/01/12 13:48:18;;;;;;;48.57;21.77;;;;;;;;;;5022772;28;20408;-80
2024/01/12 13:50:44;;;;;;;47.83;22.20;;;;;;;;;;5022488;28;20413;-80
2024/01/12 13:53:10;;;;;;;45.20;18.10;;;;;;;;;;5021596;28;20207;-80
2024/01/12 13:55:37;;;;;;;51.28;21.42;;;;;;;;;;5021503;28;20542;-79
2024/01/12 13:58:03;;;;;;;44.40;20.73;;;;;;;;;;5021923;28;20207;-80
2024/01/12 14:00:29;;;;;;;44.92;19.23;;;;;;;;;;5021637;28;20182;-80
2024/01/12 14:02:58;;;;;;;49.42;21.95;;;;;;;;;;5020381;28;20177;-81
2024/01/12 14:05:23;;;;;;;59.20;26.25;;;;;;;;;;5021324;28;20221;-80
2024/01/12 14:07:51;;;;;;;53.83;22.02;;;;;;;;;;5021414;28;20605;-81
2024/01/12 14:10:17;;;;;;;46.25;20.42;;;;;;;;;;5021760;28;20278;-79
2024/01/12 14:12:43;;;;;;;51.15;21.48;;;;;;;;;;5021523;28;20201;-80